Time;durP1;ratioP1;P1;durP2;ratioP2;P2;SDS_P1;SDS_P2;PMS_P1;PMS_P2;Temp;Humidity;BMP_temperature;BMP_pressure;BME280_temperature;BME280_humidity;BME280_pressure;Samples;Min_cycle;Max_cycle;Signal;HPM_P1;HPM_P2
2023/02/05 00:02:17;;;;;;;12.35;7.15;;;;;;;;;;5054951;28;20041;-91
2023/02/05 00:04:44;;;;;;;9.38;5.63;;;;;;;;;;5054847;28;20056;-91
2023/02/05 00:07:11;;;;;;;10.70;5.85;;;;;;;;;;5055063;28;20045;-91
2023/02/05 00:09:39;;;;;;;8.70;5.53;;;;;;;;;;5054747;28;20056;-90
2023/02/05 00:12:07;;;;;;;11.20;6.35;;;;;;;;;;5054716;28;20112;-91
2023/02/05 00:14:34;;;;;;;9.07;6.05;;;;;;;;;;5055087;28;20048;-90
2023/02/05 00:17:01;;;;;;;12.27;6.63;;;;;;;;;;5054883;28;20140;-91
2023/02/05 00:19:28;;;;;;;9.05;5.88;;;;;;;;;;5054419;28;20259;-91
2023/02/05 00:21:56;;;;;;;11.52;6.60;;;;;;;;;;5055245;28;20098;-90
2023/02/05 00:24:23;;;;;;;11.73;7.38;;;;;;;;;;5055485;28;20565;-91
2023/02/05 00:26:50;;;;;;;7.15;5.60;;;;;;;;;;5057559;28;20132;-91
2023/02/05 00:29:17;;;;;;;12.65;7.13;;;;;;;;;;5073105;28;20049;-91
2023/02/05 00:31:48;;;;;;;8.68;5.35;;;;;;;;;;5054525;28;20053;-91
2023/02/05 00:34:15;;;;;;;8.75;5.75;;;;;;;;;;5054579;28;20057;-91
2023/02/05 00:36:43;;;;;;;12.70;6.88;;;;;;;;;;5054396;28;20068;-91
2023/02/05 00:39:11;;;;;;;13.43;6.65;;;;;;;;;;5054315;28;20049;-91
2023/02/05 00:41:38;;;;;;;9.75;6.22;;;;;;;;;;5054767;28;20067;-91
2023/02/05 00:44:05;;;;;;;7.90;5.47;;;;;;;;;;5053318;28;20481;-91
2023/02/05 00:46:33;;;;;;;8.63;6.20;;;;;;;;;;5054356;28;20409;-91
2023/02/05 00:49:00;;;;;;;9.13;5.82;;;;;;;;;;5054365;28;20056;-91
2023/02/05 00:51:27;;;;;;;8.68;5.40;;;;;;;;;;5054244;28;20060;-91
2023/02/05 00:53:54;;;;;;;7.65;5.57;;;;;;;;;;5054002;28;20485;-91
2023/02/05 00:56:22;;;;;;;8.07;5.78;;;;;;;;;;5054153;28;20053;-91
2023/02/05 00:58:50;;;;;;;10.05;5.40;;;;;;;;;;5053647;28;20093;-92
2023/02/05 01:01:17;;;;;;;8.65;4.70;;;;;;;;;;5053943;28;20382;-91
2023/02/05 01:03:44;;;;;;;8.57;5.53;;;;;;;;;;5055225;28;20053;-91
2023/02/05 01:06:11;;;;;;;11.15;6.55;;;;;;;;;;5053772;28;20041;-92
2023/02/05 01:08:39;;;;;;;7.43;5.63;;;;;;;;;;5053804;28;20056;-93
2023/02/05 01:11:07;;;;;;;8.40;4.68;;;;;;;;;;5053829;28;20055;-91
2023/02/05 01:13:34;;;;;;;8.55;5.50;;;;;;;;;;5053685;28;20059;-92
2023/02/05 01:16:02;;;;;;;9.80;5.10;;;;;;;;;;5053495;28;20077;-91
2023/02/05 01:18:31;;;;;;;8.27;5.43;;;;;;;;;;5053408;28;20080;-92
2023/02/05 01:20:58;;;;;;;8.65;5.43;;;;;;;;;;5054041;28;20059;-91
2023/02/05 01:23:25;;;;;;;7.63;4.70;;;;;;;;;;5053558;28;20056;-91
2023/02/05 01:25:53;;;;;;;8.60;5.20;;;;;;;;;;5053522;28;20049;-92
2023/02/05 01:28:20;;;;;;;13.00;4.88;;;;;;;;;;5053848;28;20448;-91
2023/02/05 01:30:48;;;;;;;7.65;4.68;;;;;;;;;;5053380;28;20049;-92
2023/02/05 01:33:15;;;;;;;6.15;4.80;;;;;;;;;;5053775;28;20057;-92
2023/02/05 01:35:43;;;;;;;7.85;5.10;;;;;;;;;;5053456;28;20049;-93
2023/02/05 01:38:11;;;;;;;8.75;4.82;;;;;;;;;;5054142;28;20136;-92
2023/02/05 01:40:39;;;;;;;8.10;4.82;;;;;;;;;;5059872;28;20045;-90
2023/02/05 01:43:13;;;;;;;9.82;5.47;;;;;;;;;;5067571;28;20148;-92
2023/02/05 01:45:51;;;;;;;5.30;4.32;;;;;;;;;;5053530;28;20102;-92
2023/02/05 01:48:21;;;;;;;8.77;4.80;;;;;;;;;;5053891;28;20056;-92
2023/02/05 01:50:51;;;;;;;6.47;5.25;;;;;;;;;;5053581;28;20136;-92
2023/02/05 01:53:21;;;;;;;7.55;4.85;;;;;;;;;;5053604;28;20148;-93
2023/02/05 01:55:51;;;;;;;7.18;5.32;;;;;;;;;;5053516;28;20045;-92
2023/02/05 01:58:18;;;;;;;4.55;4.10;;;;;;;;;;5054190;28;20087;-93
2023/02/05 02:00:46;;;;;;;7.55;4.90;;;;;;;;;;5054277;28;20053;-93
2023/02/05 02:03:14;;;;;;;6.78;4.38;;;;;;;;;;5054936;28;20055;-92
2023/02/05 02:05:42;;;;;;;6.43;4.22;;;;;;;;;;5054183;28;20059;-93
2023/02/05 02:08:11;;;;;;;7.80;4.18;;;;;;;;;;5054341;28;20064;-93
2023/02/05 02:10:40;;;;;;;7.38;4.47;;;;;;;;;;5054937;28;20056;-93
2023/02/05 02:13:08;;;;;;;8.57;4.53;;;;;;;;;;5054360;28;20052;-92
2023/02/05 02:15:35;;;;;;;5.45;4.13;;;;;;;;;;5054611;28;20057;-92
2023/02/05 02:20:52;;;;;;;7.18;4.60;;;;;;;;;;5055911;28;20131;-93
2023/02/05 02:23:31;;;;;;;9.02;4.50;;;;;;;;;;5055663;28;20080;-92
2023/02/05 02:26:16;;;;;;;8.48;4.68;;;;;;;;;;5056793;28;20127;-92
2023/02/05 02:28:45;;;;;;;7.80;4.43;;;;;;;;;;5056184;28;20049;-93
2023/02/05 02:31:12;;;;;;;9.85;5.43;;;;;;;;;;5055874;28;20069;-92
2023/02/05 02:33:43;;;;;;;6.05;4.78;;;;;;;;;;5056705;28;20044;-93
2023/02/05 02:36:29;;;;;;;7.38;5.47;;;;;;;;;;5055619;28;20080;-93
2023/02/05 02:39:01;;;;;;;6.53;5.10;;;;;;;;;;5056489;28;20049;-93
2023/02/05 02:41:55;;;;;;;8.67;5.60;;;;;;;;;;5057796;28;20485;-93
2023/02/05 02:44:29;;;;;;;7.53;5.47;;;;;;;;;;5056994;28;20072;-92
2023/02/05 02:46:58;;;;;;;7.68;5.55;;;;;;;;;;5059102;28;20116;-93
2023/02/05 02:49:30;;;;;;;10.23;4.85;;;;;;;;;;5058871;28;20049;-93
2023/02/05 02:51:59;;;;;;;6.82;5.00;;;;;;;;;;5061158;28;20524;-94
2023/02/05 02:54:27;;;;;;;8.82;4.68;;;;;;;;;;5067870;28;20055;-91
2023/02/05 02:56:56;;;;;;;7.50;5.40;;;;;;;;;;5066539;28;20053;-93
2023/02/05 02:59:25;;;;;;;7.88;5.10;;;;;;;;;;5060352;28;20045;-93
2023/02/05 03:01:55;;;;;;;7.95;5.35;;;;;;;;;;5061129;28;20455;-92
2023/02/05 03:04:33;;;;;;;8.93;5.30;;;;;;;;;;5062351;28;20397;-93
2023/02/05 03:07:05;;;;;;;9.25;4.70;;;;;;;;;;5065534;28;20044;-93
2023/02/05 03:09:42;;;;;;;6.40;3.85;;;;;;;;;;5067747;28;20416;-94
2023/02/05 03:12:10;;;;;;;8.85;4.43;;;;;;;;;;5069601;28;20056;-92
2023/02/05 03:14:38;;;;;;;7.32;4.38;;;;;;;;;;5069096;28;20045;-93
2023/02/05 03:17:05;;;;;;;5.18;4.22;;;;;;;;;;5070221;28;20080;-94
2023/02/05 03:19:35;;;;;;;6.07;3.92;;;;;;;;;;5070524;28;20123;-93
2023/02/05 03:22:05;;;;;;;6.20;4.35;;;;;;;;;;5071667;28;20124;-94
2023/02/05 03:24:33;;;;;;;6.18;4.00;;;;;;;;;;5077546;28;20045;-93
2023/02/05 03:27:19;;;;;;;8.10;4.45;;;;;;;;;;5072939;28;20076;-93
2023/02/05 03:29:47;;;;;;;6.72;4.18;;;;;;;;;;5070587;28;20041;-93
2023/02/05 03:32:35;;;;;;;6.97;4.18;;;;;;;;;;5072164;28;20055;-93
2023/02/05 03:35:19;;;;;;;4.25;3.88;;;;;;;;;;5074054;28;20061;-94
2023/02/05 03:38:07;;;;;;;4.85;3.55;;;;;;;;;;5072410;28;20112;-94
2023/02/05 03:40:43;;;;;;;3.83;3.50;;;;;;;;;;5072915;28;20075;-94
2023/02/05 03:43:45;;;;;;;4.28;3.30;;;;;;;;;;5073788;28;20124;-93
2023/02/05 03:46:24;;;;;;;4.68;3.85;;;;;;;;;;5069789;28;20456;-94
2023/02/05 03:49:04;;;;;;;8.18;3.85;;;;;;;;;;5073463;28;20106;-93
2023/02/05 03:51:35;;;;;;;4.82;3.20;;;;;;;;;;5073274;28;20053;-93
2023/02/05 03:54:28;;;;;;;4.50;3.97;;;;;;;;;;5074322;28;20045;-94
2023/02/05 03:56:59;;;;;;;4.40;3.88;;;;;;;;;;5073807;28;20049;-94
2023/02/05 03:59:28;;;;;;;6.53;4.22;;;;;;;;;;5074757;28;20075;-93
2023/02/05 04:02:09;;;;;;;5.35;3.83;;;;;;;;;;5074068;28;20088;-94
2023/02/05 04:04:39;;;;;;;4.45;3.58;;;;;;;;;;5071975;28;20044;-94
2023/02/05 04:07:07;;;;;;;4.97;3.47;;;;;;;;;;5074462;28;20063;-92
2023/02/05 04:09:36;;;;;;;5.72;3.45;;;;;;;;;;5077623;28;20048;-94
2023/02/05 04:12:08;;;;;;;4.40;3.72;;;;;;;;;;5073970;28;20108;-95
2023/02/05 04:14:38;;;;;;;5.00;3.80;;;;;;;;;;5074703;28;20032;-94
2023/02/05 04:17:10;;;;;;;7.60;3.90;;;;;;;;;;5074521;28;20547;-90
2023/02/05 04:19:43;;;;;;;4.18;3.60;;;;;;;;;;5070716;28;20501;-94
2023/02/05 04:22:21;;;;;;;8.70;4.40;;;;;;;;;;5074173;28;20076;-94
2023/02/05 04:24:52;;;;;;;5.28;4.18;;;;;;;;;;5073961;28;20060;-94
2023/02/05 04:27:26;;;;;;;4.07;3.60;;;;;;;;;;5074498;28;20072;-93
2023/02/05 04:30:00;;;;;;;6.72;4.90;;;;;;;;;;5075438;28;20048;-94
2023/02/05 04:32:31;;;;;;;5.45;3.80;;;;;;;;;;5073367;28;20057;-94
2023/02/05 04:35:07;;;;;;;4.10;3.22;;;;;;;;;;5074563;28;20052;-94
2023/02/05 04:37:37;;;;;;;7.10;3.63;;;;;;;;;;5073494;28;20057;-93
2023/02/05 04:40:09;;;;;;;5.05;3.72;;;;;;;;;;5074060;28;20052;-94
2023/02/05 04:42:36;;;;;;;5.82;3.58;;;;;;;;;;5072350;28;20072;-94
2023/02/05 04:45:06;;;;;;;9.75;4.43;;;;;;;;;;5072408;28;20056;-95
2023/02/05 04:47:34;;;;;;;7.22;4.30;;;;;;;;;;5070100;28;20486;-92
2023/02/05 04:50:05;;;;;;;5.05;4.10;;;;;;;;;;5071917;28;20057;-94
2023/02/05 04:52:33;;;;;;;5.07;3.58;;;;;;;;;;5072010;28;20051;-93
2023/02/05 04:55:01;;;;;;;4.95;3.20;;;;;;;;;;5072252;28;20068;-94
2023/02/05 04:57:30;;;;;;;7.65;3.78;;;;;;;;;;5071759;28;20060;-93
2023/02/05 17:23:19;;;;;;;5.53;3.63;;;;;;;;;;1685454;26;20045;-80
2023/02/05 17:25:48;;;;;;;8.07;4.18;;;;;;;;;;4994151;28;20562;-80
2023/02/05 17:28:16;;;;;;;8.20;6.70;;;;;;;;;;4996395;28;20046;-81
2023/02/05 17:30:44;;;;;;;10.10;6.63;;;;;;;;;;4995137;28;20050;-81
2023/02/05 17:33:16;;;;;;;8.23;5.85;;;;;;;;;;4995680;28;20407;-82
2023/02/05 17:35:43;;;;;;;5.93;5.25;;;;;;;;;;4994230;28;20054;-80
2023/02/05 17:38:10;;;;;;;9.93;6.00;;;;;;;;;;5011615;28;20589;-80
2023/02/05 17:40:37;;;;;;;10.07;6.30;;;;;;;;;;5012548;28;20133;-81
2023/02/05 17:43:05;;;;;;;5.10;4.22;;;;;;;;;;4996824;28;20137;-80
2023/02/05 17:45:34;;;;;;;6.70;4.38;;;;;;;;;;4997171;28;20050;-81
2023/02/05 17:48:01;;;;;;;6.55;4.38;;;;;;;;;;4997627;28;20077;-80
2023/02/05 17:50:28;;;;;;;5.93;4.53;;;;;;;;;;5012268;28;20042;-80
2023/02/05 17:52:55;;;;;;;6.80;5.45;;;;;;;;;;5011769;28;20046;-81
2023/02/05 17:55:23;;;;;;;8.13;6.13;;;;;;;;;;5012462;28;20057;-81
2023/02/05 17:57:50;;;;;;;7.93;5.30;;;;;;;;;;5012616;28;20046;-80
2023/02/05 18:00:22;;;;;;;9.20;6.93;;;;;;;;;;5012167;28;20050;-81
2023/02/05 18:02:49;;;;;;;7.10;6.32;;;;;;;;;;4997061;28;20438;-81
2023/02/05 18:05:17;;;;;;;7.95;6.38;;;;;;;;;;4997670;28;20050;-80
2023/02/05 18:07:47;;;;;;;7.65;5.75;;;;;;;;;;5012937;28;20577;-81
2023/02/05 18:10:15;;;;;;;8.43;5.60;;;;;;;;;;4997479;28;20125;-81
2023/02/05 18:12:42;;;;;;;8.15;5.70;;;;;;;;;;5012805;28;20132;-80
2023/02/05 18:15:10;;;;;;;7.55;5.72;;;;;;;;;;5012513;28;20409;-79
2023/02/05 18:17:37;;;;;;;8.48;6.80;;;;;;;;;;5012476;28;20096;-81
2023/02/05 18:20:05;;;;;;;9.63;6.75;;;;;;;;;;4997217;28;20494;-81
2023/02/05 18:22:32;;;;;;;9.85;6.80;;;;;;;;;;5012561;28;20417;-81
2023/02/05 18:24:59;;;;;;;8.55;6.97;;;;;;;;;;4997798;28;20114;-81
2023/02/05 18:27:27;;;;;;;10.15;6.60;;;;;;;;;;5013222;28;20109;-80
2023/02/05 18:29:54;;;;;;;10.25;6.93;;;;;;;;;;4997335;28;20070;-80
2023/02/05 18:32:21;;;;;;;9.57;6.82;;;;;;;;;;4997828;28;20078;-81
2023/02/05 18:34:49;;;;;;;11.30;6.85;;;;;;;;;;5012916;28;20099;-81
2023/02/05 18:37:16;;;;;;;11.30;7.30;;;;;;;;;;4998678;28;20060;-81
2023/02/05 18:39:44;;;;;;;9.98;6.72;;;;;;;;;;5016139;28;20142;-80
2023/02/05 18:42:12;;;;;;;9.05;6.38;;;;;;;;;;4997795;28;20042;-80
2023/02/05 18:44:39;;;;;;;12.82;6.65;;;;;;;;;;5016359;28;20133;-81
2023/02/05 18:47:06;;;;;;;9.75;7.38;;;;;;;;;;5002420;28;20423;-81
2023/02/05 18:49:34;;;;;;;9.15;5.97;;;;;;;;;;5002188;28;20038;-80
2023/02/05 18:52:02;;;;;;;6.63;5.97;;;;;;;;;;5018207;28;20418;-81
2023/02/05 18:54:29;;;;;;;8.15;6.00;;;;;;;;;;5017900;28;20060;-81
2023/02/05 18:56:57;;;;;;;8.45;7.18;;;;;;;;;;5021186;28;20054;-81
2023/02/05 18:59:24;;;;;;;9.07;6.88;;;;;;;;;;5006355;28;20133;-81
2023/02/05 19:01:52;;;;;;;8.73;6.80;;;;;;;;;;5020769;28;20081;-81
2023/02/05 19:04:20;;;;;;;10.43;7.22;;;;;;;;;;5020556;28;20137;-80
2023/02/05 19:06:52;;;;;;;8.13;6.20;;;;;;;;;;5013074;28;20061;-81
2023/02/05 19:09:21;;;;;;;9.18;5.90;;;;;;;;;;5012597;28;20074;-80
2023/02/05 19:11:48;;;;;;;7.65;5.90;;;;;;;;;;5012564;28;20494;-80
2023/02/05 19:14:16;;;;;;;13.23;9.30;;;;;;;;;;5070447;23;20117;-79
2023/02/05 19:16:44;;;;;;;13.20;8.20;;;;;;;;;;5059907;28;20129;-79
2023/02/05 19:19:13;;;;;;;6.60;5.03;;;;;;;;;;5059212;28;20135;-81
2023/02/05 19:21:41;;;;;;;5.80;4.93;;;;;;;;;;5072657;28;20119;-81
2023/02/05 19:24:09;;;;;;;7.18;4.65;;;;;;;;;;5078341;28;20048;-81
2023/02/05 19:26:37;;;;;;;10.20;6.63;;;;;;;;;;5068756;28;20048;-82
2023/02/05 19:29:06;;;;;;;6.93;5.25;;;;;;;;;;5066634;28;20076;-79
2023/02/05 19:31:34;;;;;;;11.85;7.50;;;;;;;;;;5067170;28;20116;-80
2023/02/05 19:34:01;;;;;;;14.30;8.02;;;;;;;;;;5066062;28;20059;-79
2023/02/05 19:36:29;;;;;;;14.63;8.05;;;;;;;;;;5065435;28;20144;-79
2023/02/05 19:38:58;;;;;;;11.45;6.65;;;;;;;;;;5065779;28;20143;-82
2023/02/05 19:41:26;;;;;;;9.95;5.85;;;;;;;;;;5066241;28;20100;-82
2023/02/05 19:43:54;;;;;;;9.65;6.80;;;;;;;;;;5063644;28;20144;-82
2023/02/05 19:46:26;;;;;;;12.82;7.90;;;;;;;;;;5064944;28;20481;-82
2023/02/05 19:48:58;;;;;;;15.10;8.23;;;;;;;;;;5062344;28;20049;-82
2023/02/05 19:51:25;;;;;;;12.35;7.40;;;;;;;;;;5063421;28;20053;-81
2023/02/05 19:53:55;;;;;;;12.88;7.55;;;;;;;;;;5062362;28;20140;-82
2023/02/05 19:56:22;;;;;;;15.85;9.45;;;;;;;;;;5061920;28;20045;-81
2023/02/05 19:58:51;;;;;;;12.95;9.70;;;;;;;;;;5061181;28;20072;-82
2023/02/05 20:01:22;;;;;;;14.48;9.18;;;;;;;;;;5061132;28;20075;-82
2023/02/05 20:03:50;;;;;;;19.60;10.85;;;;;;;;;;5059553;28;20471;-81
2023/02/05 20:06:18;;;;;;;15.63;10.18;;;;;;;;;;5060564;28;20114;-82
2023/02/05 20:08:46;;;;;;;14.75;9.10;;;;;;;;;;5041931;28;20103;-82
2023/02/05 20:11:13;;;;;;;15.32;8.60;;;;;;;;;;5060240;28;20081;-82
2023/02/05 20:13:41;;;;;;;15.18;8.60;;;;;;;;;;5059544;28;20061;-81
2023/02/05 20:16:16;;;;;;;15.25;9.73;;;;;;;;;;5059248;28;20064;-81
2023/02/05 20:18:44;;;;;;;13.40;8.50;;;;;;;;;;5059657;28;20053;-82
2023/02/05 20:21:17;;;;;;;16.17;9.82;;;;;;;;;;5057901;28;20059;-82
2023/02/05 20:23:45;;;;;;;14.70;8.77;;;;;;;;;;5057179;28;20064;-82
2023/02/05 20:26:13;;;;;;;11.90;9.30;;;;;;;;;;5057595;28;20072;-82
2023/02/05 20:31:36;;;;;;;15.65;9.13;;;;;;;;;;5059463;28;20121;-82
2023/02/05 20:34:05;;;;;;;12.82;8.80;;;;;;;;;;5057653;28;20056;-82
2023/02/05 20:36:33;;;;;;;17.55;10.52;;;;;;;;;;5057235;28;20059;-82
2023/02/05 20:39:01;;;;;;;15.52;10.13;;;;;;;;;;5040744;28;20055;-82
2023/02/05 20:41:32;;;;;;;16.63;11.40;;;;;;;;;;5040758;28;20075;-82
2023/02/05 20:43:59;;;;;;;16.40;10.57;;;;;;;;;;5041178;28;20044;-82
2023/02/05 20:46:34;;;;;;;17.02;10.48;;;;;;;;;;5041628;28;20101;-82
2023/02/05 20:49:02;;;;;;;15.70;9.80;;;;;;;;;;5025603;28;20061;-82
2023/02/05 20:51:29;;;;;;;16.70;11.32;;;;;;;;;;5039064;28;20049;-82
